Main page
METAR-TAF:

METAR-TAF

Airports :

RAF Wittering

Wittering, England

latitude: 52-37N, longitude: 000-28W, elevation: 84 m

Current weather observation

The report was made 45 minutes ago, at 19:20 UTC
Wind 14 kt from the West/Southwest
Temperature 6°C
Humidity 81%
Pressure 1019 hPa
Visibility 10 km or more

METAR: EGXT 291920Z AUTO 24014KT 9999 NCD 06/03 Q1019

Time: 20:05 (20:05 UTC)


TAF: missing

Weather observations and forecasts of more than 4000 airports (METAR and TAF reports).

The available stations are represented by yellow and red dots on the map.

Hover mouse over dot to see the name of the station.

Then click to see weather observations and forecasts.

To change the map : click on the green buttons with a black cross to zoom in, on the green button with a dash to zoom out, or on the green arrows for adjacent maps.


METAR-TAF: